sensor_id;sensor_type;location;lat;lon;timestamp;P1;durP1;ratioP1;P2;durP2;ratioP2
16516;SDS011;8371;52.272;9.746;2023-09-07T00:01:49;1.00;;;1.00;;
16516;SDS011;8371;52.272;9.746;2023-09-07T00:04:17;1.23;;;1.23;;
16516;SDS011;8371;52.272;9.746;2023-09-07T00:06:42;2.30;;;1.50;;
16516;SDS011;8371;52.272;9.746;2023-09-07T00:09:09;1.50;;;1.50;;
16516;SDS011;8371;52.272;9.746;2023-09-07T00:11:36;3.13;;;2.60;;
16516;SDS011;8371;52.272;9.746;2023-09-07T00:14:02;1.33;;;1.33;;
16516;SDS011;8371;52.272;9.746;2023-09-07T00:16:27;1.23;;;1.23;;
16516;SDS011;8371;52.272;9.746;2023-09-07T00:18:53;1.20;;;1.20;;
16516;SDS011;8371;52.272;9.746;2023-09-07T00:21:19;1.17;;;1.17;;
16516;SDS011;8371;52.272;9.746;2023-09-07T00:23:44;1.70;;;1.20;;
16516;SDS011;8371;52.272;9.746;2023-09-07T00:26:10;1.63;;;1.37;;
16516;SDS011;8371;52.272;9.746;2023-09-07T00:28:38;1.20;;;1.20;;
16516;SDS011;8371;52.272;9.746;2023-09-07T00:31:03;1.20;;;1.20;;
16516;SDS011;8371;52.272;9.746;2023-09-07T00:33:29;1.60;;;1.50;;
16516;SDS011;8371;52.272;9.746;2023-09-07T00:35:55;4.27;;;1.50;;
16516;SDS011;8371;52.272;9.746;2023-09-07T00:38:20;1.17;;;1.17;;
16516;SDS011;8371;52.272;9.746;2023-09-07T00:40:46;1.50;;;1.50;;
16516;SDS011;8371;52.272;9.746;2023-09-07T00:43:12;1.13;;;1.13;;
16516;SDS011;8371;52.272;9.746;2023-09-07T00:45:38;1.43;;;1.10;;
16516;SDS011;8371;52.272;9.746;2023-09-07T00:48:05;1.10;;;1.10;;
16516;SDS011;8371;52.272;9.746;2023-09-07T00:50:31;2.00;;;1.20;;
16516;SDS011;8371;52.272;9.746;2023-09-07T00:52:57;0.80;;;0.80;;
16516;SDS011;8371;52.272;9.746;2023-09-07T00:55:25;1.30;;;1.30;;
16516;SDS011;8371;52.272;9.746;2023-09-07T00:57:52;2.77;;;1.17;;
16516;SDS011;8371;52.272;9.746;2023-09-07T01:00:20;1.73;;;1.60;;
16516;SDS011;8371;52.272;9.746;2023-09-07T01:02:46;1.27;;;1.27;;
16516;SDS011;8371;52.272;9.746;2023-09-07T01:05:12;1.37;;;1.27;;
16516;SDS011;8371;52.272;9.746;2023-09-07T01:07:40;1.37;;;1.27;;
16516;SDS011;8371;52.272;9.746;2023-09-07T01:10:07;1.40;;;1.40;;
16516;SDS011;8371;52.272;9.746;2023-09-07T01:12:33;1.60;;;1.50;;
16516;SDS011;8371;52.272;9.746;2023-09-07T01:14:59;1.20;;;1.20;;
16516;SDS011;8371;52.272;9.746;2023-09-07T01:17:24;1.10;;;1.10;;
16516;SDS011;8371;52.272;9.746;2023-09-07T01:19:51;1.30;;;1.30;;
16516;SDS011;8371;52.272;9.746;2023-09-07T01:22:19;1.40;;;1.40;;
16516;SDS011;8371;52.272;9.746;2023-09-07T01:24:45;1.30;;;1.30;;
16516;SDS011;8371;52.272;9.746;2023-09-07T01:27:11;1.60;;;1.50;;
16516;SDS011;8371;52.272;9.746;2023-09-07T01:29:38;1.30;;;1.30;;
16516;SDS011;8371;52.272;9.746;2023-09-07T01:32:05;1.40;;;1.40;;
16516;SDS011;8371;52.272;9.746;2023-09-07T01:34:31;1.50;;;1.50;;
16516;SDS011;8371;52.272;9.746;2023-09-07T01:36:57;1.20;;;1.20;;
16516;SDS011;8371;52.272;9.746;2023-09-07T01:39:23;1.53;;;1.43;;
16516;SDS011;8371;52.272;9.746;2023-09-07T01:41:49;1.27;;;1.27;;
16516;SDS011;8371;52.272;9.746;2023-09-07T01:44:15;2.50;;;1.80;;
16516;SDS011;8371;52.272;9.746;2023-09-07T01:46:40;1.67;;;1.67;;
16516;SDS011;8371;52.272;9.746;2023-09-07T01:49:06;1.80;;;1.80;;
16516;SDS011;8371;52.272;9.746;2023-09-07T01:51:32;1.73;;;1.73;;
16516;SDS011;8371;52.272;9.746;2023-09-07T01:53:57;1.87;;;1.87;;
16516;SDS011;8371;52.272;9.746;2023-09-07T01:56:23;1.77;;;1.77;;
16516;SDS011;8371;52.272;9.746;2023-09-07T01:58:49;1.80;;;1.70;;
16516;SDS011;8371;52.272;9.746;2023-09-07T02:01:47;1.30;;;1.30;;
16516;SDS011;8371;52.272;9.746;2023-09-07T02:03:50;1.40;;;1.40;;
16516;SDS011;8371;52.272;9.746;2023-09-07T02:06:16;1.47;;;1.47;;
16516;SDS011;8371;52.272;9.746;2023-09-07T02:08:41;1.43;;;1.43;;
16516;SDS011;8371;52.272;9.746;2023-09-07T02:11:07;1.60;;;1.60;;
16516;SDS011;8371;52.272;9.746;2023-09-07T02:13:33;2.00;;;2.00;;
16516;SDS011;8371;52.272;9.746;2023-09-07T02:16:02;2.10;;;2.00;;
16516;SDS011;8371;52.272;9.746;2023-09-07T02:18:29;2.07;;;1.97;;
16516;SDS011;8371;52.272;9.746;2023-09-07T02:21:00;1.57;;;1.57;;
16516;SDS011;8371;52.272;9.746;2023-09-07T02:23:30;1.47;;;1.47;;
16516;SDS011;8371;52.272;9.746;2023-09-07T02:25:57;1.23;;;1.23;;
16516;SDS011;8371;52.272;9.746;2023-09-07T02:28:23;3.53;;;1.47;;
16516;SDS011;8371;52.272;9.746;2023-09-07T02:30:49;1.20;;;1.20;;
16516;SDS011;8371;52.272;9.746;2023-09-07T02:33:15;1.43;;;1.43;;
16516;SDS011;8371;52.272;9.746;2023-09-07T02:35:41;1.30;;;1.30;;
16516;SDS011;8371;52.272;9.746;2023-09-07T02:38:06;1.40;;;1.40;;
16516;SDS011;8371;52.272;9.746;2023-09-07T02:40:32;1.17;;;1.17;;
16516;SDS011;8371;52.272;9.746;2023-09-07T02:42:58;1.60;;;1.60;;
16516;SDS011;8371;52.272;9.746;2023-09-07T02:45:23;1.40;;;1.40;;
16516;SDS011;8371;52.272;9.746;2023-09-07T02:47:49;1.70;;;1.60;;
16516;SDS011;8371;52.272;9.746;2023-09-07T02:50:16;1.30;;;1.30;;
16516;SDS011;8371;52.272;9.746;2023-09-07T02:52:43;1.47;;;1.47;;
16516;SDS011;8371;52.272;9.746;2023-09-07T02:55:08;1.37;;;1.37;;
16516;SDS011;8371;52.272;9.746;2023-09-07T02:57:34;2.13;;;1.57;;
16516;SDS011;8371;52.272;9.746;2023-09-07T03:00:00;1.63;;;1.63;;
16516;SDS011;8371;52.272;9.746;2023-09-07T03:02:27;1.90;;;1.83;;
16516;SDS011;8371;52.272;9.746;2023-09-07T03:04:53;1.50;;;1.50;;
16516;SDS011;8371;52.272;9.746;2023-09-07T03:07:20;1.60;;;1.50;;
16516;SDS011;8371;52.272;9.746;2023-09-07T03:09:47;1.77;;;1.77;;
16516;SDS011;8371;52.272;9.746;2023-09-07T03:12:13;2.33;;;2.13;;
16516;SDS011;8371;52.272;9.746;2023-09-07T03:14:40;2.00;;;1.97;;
16516;SDS011;8371;52.272;9.746;2023-09-07T03:17:08;1.77;;;1.77;;
16516;SDS011;8371;52.272;9.746;2023-09-07T03:19:35;1.80;;;1.80;;
16516;SDS011;8371;52.272;9.746;2023-09-07T03:22:01;2.03;;;2.03;;
16516;SDS011;8371;52.272;9.746;2023-09-07T03:24:27;1.97;;;1.97;;
16516;SDS011;8371;52.272;9.746;2023-09-07T03:26:53;2.43;;;2.33;;
16516;SDS011;8371;52.272;9.746;2023-09-07T03:29:19;2.00;;;2.00;;
16516;SDS011;8371;52.272;9.746;2023-09-07T03:31:44;2.90;;;2.37;;
16516;SDS011;8371;52.272;9.746;2023-09-07T03:34:10;2.50;;;2.40;;
16516;SDS011;8371;52.272;9.746;2023-09-07T03:36:36;2.20;;;2.20;;
16516;SDS011;8371;52.272;9.746;2023-09-07T03:39:02;1.90;;;1.87;;
16516;SDS011;8371;52.272;9.746;2023-09-07T03:41:28;1.80;;;1.80;;
16516;SDS011;8371;52.272;9.746;2023-09-07T03:43:55;2.17;;;2.07;;
16516;SDS011;8371;52.272;9.746;2023-09-07T03:46:21;2.23;;;2.13;;
16516;SDS011;8371;52.272;9.746;2023-09-07T03:48:47;2.47;;;2.37;;
16516;SDS011;8371;52.272;9.746;2023-09-07T03:51:12;2.10;;;2.10;;
16516;SDS011;8371;52.272;9.746;2023-09-07T03:53:38;2.17;;;2.07;;
16516;SDS011;8371;52.272;9.746;2023-09-07T03:56:04;2.57;;;2.47;;
16516;SDS011;8371;52.272;9.746;2023-09-07T03:58:30;2.70;;;2.60;;
16516;SDS011;8371;52.272;9.746;2023-09-07T04:00:58;2.27;;;2.17;;
16516;SDS011;8371;52.272;9.746;2023-09-07T04:03:25;2.37;;;2.27;;
16516;SDS011;8371;52.272;9.746;2023-09-07T04:05:51;2.27;;;2.17;;
16516;SDS011;8371;52.272;9.746;2023-09-07T04:08:16;2.00;;;2.00;;
16516;SDS011;8371;52.272;9.746;2023-09-07T04:10:42;2.27;;;2.23;;
16516;SDS011;8371;52.272;9.746;2023-09-07T04:13:08;2.10;;;2.00;;
16516;SDS011;8371;52.272;9.746;2023-09-07T04:15:34;2.13;;;2.13;;
16516;SDS011;8371;52.272;9.746;2023-09-07T04:18:02;2.43;;;2.33;;
16516;SDS011;8371;52.272;9.746;2023-09-07T04:20:28;2.30;;;2.20;;
16516;SDS011;8371;52.272;9.746;2023-09-07T04:22:54;2.10;;;2.07;;
16516;SDS011;8371;52.272;9.746;2023-09-07T04:25:20;2.20;;;2.10;;
16516;SDS011;8371;52.272;9.746;2023-09-07T04:27:46;1.50;;;1.50;;
16516;SDS011;8371;52.272;9.746;2023-09-07T04:30:11;2.00;;;2.00;;
16516;SDS011;8371;52.272;9.746;2023-09-07T04:32:37;1.70;;;1.70;;
16516;SDS011;8371;52.272;9.746;2023-09-07T04:35:03;2.10;;;2.00;;
16516;SDS011;8371;52.272;9.746;2023-09-07T04:37:29;2.37;;;2.27;;
16516;SDS011;8371;52.272;9.746;2023-09-07T04:39:55;2.40;;;2.03;;
16516;SDS011;8371;52.272;9.746;2023-09-07T04:42:20;2.10;;;2.10;;
16516;SDS011;8371;52.272;9.746;2023-09-07T04:44:49;2.53;;;2.43;;
16516;SDS011;8371;52.272;9.746;2023-09-07T04:47:14;2.07;;;2.00;;
16516;SDS011;8371;52.272;9.746;2023-09-07T04:49:48;2.30;;;2.20;;
16516;SDS011;8371;52.272;9.746;2023-09-07T04:52:14;3.37;;;2.30;;
16516;SDS011;8371;52.272;9.746;2023-09-07T04:54:40;2.33;;;2.23;;
16516;SDS011;8371;52.272;9.746;2023-09-07T04:57:06;2.20;;;2.10;;
16516;SDS011;8371;52.272;9.746;2023-09-07T04:59:31;2.20;;;2.20;;
16516;SDS011;8371;52.272;9.746;2023-09-07T05:02:00;3.00;;;2.20;;
16516;SDS011;8371;52.272;9.746;2023-09-07T05:04:29;3.00;;;2.70;;
16516;SDS011;8371;52.272;9.746;2023-09-07T05:06:56;2.80;;;2.20;;
16516;SDS011;8371;52.272;9.746;2023-09-07T05:09:22;2.63;;;2.53;;
16516;SDS011;8371;52.272;9.746;2023-09-07T05:11:49;2.53;;;2.43;;
16516;SDS011;8371;52.272;9.746;2023-09-07T05:14:14;2.33;;;2.20;;
16516;SDS011;8371;52.272;9.746;2023-09-07T05:16:43;2.17;;;2.07;;
16516;SDS011;8371;52.272;9.746;2023-09-07T05:19:09;2.33;;;2.23;;
16516;SDS011;8371;52.272;9.746;2023-09-07T05:21:35;2.20;;;2.10;;
16516;SDS011;8371;52.272;9.746;2023-09-07T05:24:01;2.60;;;2.40;;
16516;SDS011;8371;52.272;9.746;2023-09-07T05:26:26;2.77;;;2.60;;
16516;SDS011;8371;52.272;9.746;2023-09-07T05:28:53;2.60;;;2.50;;
16516;SDS011;8371;52.272;9.746;2023-09-07T05:31:19;4.37;;;3.10;;
16516;SDS011;8371;52.272;9.746;2023-09-07T05:33:44;2.80;;;2.70;;
16516;SDS011;8371;52.272;9.746;2023-09-07T05:36:10;2.10;;;2.03;;
16516;SDS011;8371;52.272;9.746;2023-09-07T05:38:36;4.10;;;2.40;;
16516;SDS011;8371;52.272;9.746;2023-09-07T05:41:03;2.33;;;2.23;;
16516;SDS011;8371;52.272;9.746;2023-09-07T05:43:28;3.47;;;2.40;;
16516;SDS011;8371;52.272;9.746;2023-09-07T05:45:54;2.50;;;2.40;;
16516;SDS011;8371;52.272;9.746;2023-09-07T05:48:20;2.13;;;2.03;;
16516;SDS011;8371;52.272;9.746;2023-09-07T05:50:46;1.90;;;1.90;;
16516;SDS011;8371;52.272;9.746;2023-09-07T05:53:11;2.53;;;2.43;;
16516;SDS011;8371;52.272;9.746;2023-09-07T05:55:37;2.03;;;2.00;;
16516;SDS011;8371;52.272;9.746;2023-09-07T05:58:08;2.33;;;2.23;;
16516;SDS011;8371;52.272;9.746;2023-09-07T06:00:31;2.53;;;2.43;;
16516;SDS011;8371;52.272;9.746;2023-09-07T06:02:57;2.17;;;2.07;;
16516;SDS011;8371;52.272;9.746;2023-09-07T06:05:23;2.83;;;2.47;;
16516;SDS011;8371;52.272;9.746;2023-09-07T06:07:49;2.17;;;2.17;;
16516;SDS011;8371;52.272;9.746;2023-09-07T06:10:14;2.77;;;2.67;;
16516;SDS011;8371;52.272;9.746;2023-09-07T06:12:40;2.63;;;2.53;;
16516;SDS011;8371;52.272;9.746;2023-09-07T06:15:07;3.30;;;3.10;;
16516;SDS011;8371;52.272;9.746;2023-09-07T06:17:33;3.70;;;2.73;;
16516;SDS011;8371;52.272;9.746;2023-09-07T06:19:59;5.23;;;2.60;;
16516;SDS011;8371;52.272;9.746;2023-09-07T06:22:25;2.87;;;2.77;;
16516;SDS011;8371;52.272;9.746;2023-09-07T06:24:50;3.20;;;3.10;;
16516;SDS011;8371;52.272;9.746;2023-09-07T06:27:16;3.73;;;2.93;;
16516;SDS011;8371;52.272;9.746;2023-09-07T06:29:42;3.20;;;3.10;;
16516;SDS011;8371;52.272;9.746;2023-09-07T06:32:07;3.03;;;2.83;;
16516;SDS011;8371;52.272;9.746;2023-09-07T06:34:33;5.63;;;3.37;;
16516;SDS011;8371;52.272;9.746;2023-09-07T06:36:59;3.80;;;3.63;;
16516;SDS011;8371;52.272;9.746;2023-09-07T06:39:24;4.03;;;3.83;;
16516;SDS011;8371;52.272;9.746;2023-09-07T06:41:50;3.80;;;3.60;;
16516;SDS011;8371;52.272;9.746;2023-09-07T06:44:16;4.57;;;4.17;;
16516;SDS011;8371;52.272;9.746;2023-09-07T06:46:41;3.67;;;3.57;;
16516;SDS011;8371;52.272;9.746;2023-09-07T06:49:07;3.93;;;3.73;;
16516;SDS011;8371;52.272;9.746;2023-09-07T06:51:33;3.83;;;3.53;;
16516;SDS011;8371;52.272;9.746;2023-09-07T06:53:59;4.13;;;3.90;;
16516;SDS011;8371;52.272;9.746;2023-09-07T06:56:27;3.50;;;3.40;;
16516;SDS011;8371;52.272;9.746;2023-09-07T06:58:54;3.67;;;3.57;;
16516;SDS011;8371;52.272;9.746;2023-09-07T07:01:20;3.80;;;3.60;;
16516;SDS011;8371;52.272;9.746;2023-09-07T07:03:45;4.00;;;3.90;;
16516;SDS011;8371;52.272;9.746;2023-09-07T07:06:11;4.07;;;3.97;;
16516;SDS011;8371;52.272;9.746;2023-09-07T07:08:37;4.33;;;4.13;;
16516;SDS011;8371;52.272;9.746;2023-09-07T07:11:03;4.17;;;3.90;;
16516;SDS011;8371;52.272;9.746;2023-09-07T07:13:28;3.83;;;3.70;;
16516;SDS011;8371;52.272;9.746;2023-09-07T07:15:54;3.27;;;3.17;;
16516;SDS011;8371;52.272;9.746;2023-09-07T07:18:20;3.70;;;3.40;;
16516;SDS011;8371;52.272;9.746;2023-09-07T07:20:46;3.93;;;3.50;;
16516;SDS011;8371;52.272;9.746;2023-09-07T07:23:11;4.17;;;3.97;;
16516;SDS011;8371;52.272;9.746;2023-09-07T07:25:38;3.67;;;3.57;;
16516;SDS011;8371;52.272;9.746;2023-09-07T07:28:04;3.70;;;3.60;;
16516;SDS011;8371;52.272;9.746;2023-09-07T07:30:31;3.63;;;3.20;;
16516;SDS011;8371;52.272;9.746;2023-09-07T07:33:06;4.37;;;4.27;;
16516;SDS011;8371;52.272;9.746;2023-09-07T07:35:33;3.90;;;3.70;;
16516;SDS011;8371;52.272;9.746;2023-09-07T07:38:02;4.17;;;3.97;;
16516;SDS011;8371;52.272;9.746;2023-09-07T07:40:31;3.97;;;3.77;;
16516;SDS011;8371;52.272;9.746;2023-09-07T07:42:58;3.87;;;3.67;;
16516;SDS011;8371;52.272;9.746;2023-09-07T07:45:24;4.90;;;4.70;;
16516;SDS011;8371;52.272;9.746;2023-09-07T07:47:50;4.10;;;4.00;;
16516;SDS011;8371;52.272;9.746;2023-09-07T07:50:17;3.80;;;3.70;;
16516;SDS011;8371;52.272;9.746;2023-09-07T07:52:44;3.93;;;3.73;;
16516;SDS011;8371;52.272;9.746;2023-09-07T07:55:10;4.17;;;4.00;;
16516;SDS011;8371;52.272;9.746;2023-09-07T07:57:38;5.00;;;4.60;;
16516;SDS011;8371;52.272;9.746;2023-09-07T08:00:06;4.73;;;4.53;;
16516;SDS011;8371;52.272;9.746;2023-09-07T08:02:35;4.10;;;3.90;;
16516;SDS011;8371;52.272;9.746;2023-09-07T08:05:21;4.57;;;4.27;;
16516;SDS011;8371;52.272;9.746;2023-09-07T08:07:47;4.23;;;3.97;;
16516;SDS011;8371;52.272;9.746;2023-09-07T08:10:12;5.50;;;4.93;;
16516;SDS011;8371;52.272;9.746;2023-09-07T08:12:38;5.53;;;5.23;;
16516;SDS011;8371;52.272;9.746;2023-09-07T08:15:04;4.80;;;4.40;;
16516;SDS011;8371;52.272;9.746;2023-09-07T08:17:30;4.90;;;4.70;;
16516;SDS011;8371;52.272;9.746;2023-09-07T08:19:56;5.10;;;4.70;;
16516;SDS011;8371;52.272;9.746;2023-09-07T08:22:22;5.37;;;5.07;;
16516;SDS011;8371;52.272;9.746;2023-09-07T08:24:48;5.30;;;4.83;;
16516;SDS011;8371;52.272;9.746;2023-09-07T08:27:14;4.90;;;4.70;;
16516;SDS011;8371;52.272;9.746;2023-09-07T08:29:42;5.33;;;4.93;;
16516;SDS011;8371;52.272;9.746;2023-09-07T08:32:09;5.20;;;4.80;;
16516;SDS011;8371;52.272;9.746;2023-09-07T08:34:37;5.53;;;5.13;;
16516;SDS011;8371;52.272;9.746;2023-09-07T08:37:05;4.83;;;4.53;;
16516;SDS011;8371;52.272;9.746;2023-09-07T08:39:32;5.13;;;4.83;;
16516;SDS011;8371;52.272;9.746;2023-09-07T08:41:59;4.43;;;4.23;;
16516;SDS011;8371;52.272;9.746;2023-09-07T08:44:26;5.30;;;4.80;;
16516;SDS011;8371;52.272;9.746;2023-09-07T08:46:54;4.47;;;4.17;;
16516;SDS011;8371;52.272;9.746;2023-09-07T08:49:20;4.87;;;4.27;;
16516;SDS011;8371;52.272;9.746;2023-09-07T08:51:48;4.17;;;3.60;;
16516;SDS011;8371;52.272;9.746;2023-09-07T08:54:15;4.40;;;4.13;;
16516;SDS011;8371;52.272;9.746;2023-09-07T08:56:40;5.00;;;4.60;;
16516;SDS011;8371;52.272;9.746;2023-09-07T08:59:06;4.27;;;4.07;;
16516;SDS011;8371;52.272;9.746;2023-09-07T09:01:33;4.07;;;3.97;;
16516;SDS011;8371;52.272;9.746;2023-09-07T09:03:59;4.53;;;4.33;;
16516;SDS011;8371;52.272;9.746;2023-09-07T09:06:25;4.87;;;4.67;;
16516;SDS011;8371;52.272;9.746;2023-09-07T09:08:52;3.80;;;3.70;;
16516;SDS011;8371;52.272;9.746;2023-09-07T09:11:20;4.10;;;3.90;;
16516;SDS011;8371;52.272;9.746;2023-09-07T09:13:47;4.40;;;4.10;;
16516;SDS011;8371;52.272;9.746;2023-09-07T09:16:14;4.10;;;3.83;;
16516;SDS011;8371;52.272;9.746;2023-09-07T09:18:51;4.43;;;4.10;;
16516;SDS011;8371;52.272;9.746;2023-09-07T09:21:21;4.13;;;3.93;;
16516;SDS011;8371;52.272;9.746;2023-09-07T09:26:38;4.40;;;4.20;;
16516;SDS011;8371;52.272;9.746;2023-09-07T09:29:04;4.17;;;3.90;;
16516;SDS011;8371;52.272;9.746;2023-09-07T09:31:30;4.13;;;3.87;;
16516;SDS011;8371;52.272;9.746;2023-09-07T09:33:56;4.23;;;4.03;;
16516;SDS011;8371;52.272;9.746;2023-09-07T09:36:22;4.10;;;4.00;;
16516;SDS011;8371;52.272;9.746;2023-09-07T09:38:48;4.30;;;3.93;;
16516;SDS011;8371;52.272;9.746;2023-09-07T09:41:17;4.50;;;4.30;;
16516;SDS011;8371;52.272;9.746;2023-09-07T09:43:43;3.40;;;3.30;;
16516;SDS011;8371;52.272;9.746;2023-09-07T09:46:11;3.93;;;3.83;;
16516;SDS011;8371;52.272;9.746;2023-09-07T09:48:37;4.97;;;3.63;;
16516;SDS011;8371;52.272;9.746;2023-09-07T09:51:04;4.87;;;4.67;;
16516;SDS011;8371;52.272;9.746;2023-09-07T09:53:30;4.67;;;4.00;;
16516;SDS011;8371;52.272;9.746;2023-09-07T09:55:56;4.60;;;3.87;;
16516;SDS011;8371;52.272;9.746;2023-09-07T09:58:21;3.77;;;3.60;;
16516;SDS011;8371;52.272;9.746;2023-09-07T10:00:53;4.10;;;3.90;;
16516;SDS011;8371;52.272;9.746;2023-09-07T10:03:22;4.40;;;4.17;;
16516;SDS011;8371;52.272;9.746;2023-09-07T10:05:52;4.40;;;4.10;;
16516;SDS011;8371;52.272;9.746;2023-09-07T10:08:19;3.90;;;3.60;;
16516;SDS011;8371;52.272;9.746;2023-09-07T10:10:47;3.50;;;3.40;;
16516;SDS011;8371;52.272;9.746;2023-09-07T10:13:14;4.10;;;3.53;;
16516;SDS011;8371;52.272;9.746;2023-09-07T10:15:41;4.17;;;4.07;;
16516;SDS011;8371;52.272;9.746;2023-09-07T10:18:09;3.57;;;3.47;;
16516;SDS011;8371;52.272;9.746;2023-09-07T10:20:57;3.43;;;3.30;;
16516;SDS011;8371;52.272;9.746;2023-09-07T10:23:39;3.40;;;3.30;;
16516;SDS011;8371;52.272;9.746;2023-09-07T10:26:10;3.85;;;3.65;;
16516;SDS011;8371;52.272;9.746;2023-09-07T10:28:38;3.77;;;3.67;;
16516;SDS011;8371;52.272;9.746;2023-09-07T10:31:04;3.75;;;3.65;;
16516;SDS011;8371;52.272;9.746;2023-09-07T10:33:32;3.60;;;3.50;;
16516;SDS011;8371;52.272;9.746;2023-09-07T10:35:59;3.13;;;3.03;;
16516;SDS011;8371;52.272;9.746;2023-09-07T10:38:25;3.72;;;3.55;;
16516;SDS011;8371;52.272;9.746;2023-09-07T10:40:54;3.83;;;3.53;;
16516;SDS011;8371;52.272;9.746;2023-09-07T10:43:25;4.22;;;4.03;;
16516;SDS011;8371;52.272;9.746;2023-09-07T10:45:53;4.03;;;3.83;;
16516;SDS011;8371;52.272;9.746;2023-09-07T10:48:22;3.37;;;3.27;;
16516;SDS011;8371;52.272;9.746;2023-09-07T10:50:49;3.60;;;3.35;;
16516;SDS011;8371;52.272;9.746;2023-09-07T10:53:31;3.30;;;3.20;;
16516;SDS011;8371;52.272;9.746;2023-09-07T10:55:56;3.60;;;3.50;;
16516;SDS011;8371;52.272;9.746;2023-09-07T10:58:31;3.72;;;3.62;;
16516;SDS011;8371;52.272;9.746;2023-09-07T11:00:56;3.87;;;3.70;;
16516;SDS011;8371;52.272;9.746;2023-09-07T11:03:22;3.70;;;3.60;;
16516;SDS011;8371;52.272;9.746;2023-09-07T11:05:49;3.27;;;3.02;;
16516;SDS011;8371;52.272;9.746;2023-09-07T11:08:18;4.33;;;3.17;;
16516;SDS011;8371;52.272;9.746;2023-09-07T11:10:44;3.43;;;3.33;;
16516;SDS011;8371;52.272;9.746;2023-09-07T11:13:09;3.30;;;3.20;;
16516;SDS011;8371;52.272;9.746;2023-09-07T11:15:35;3.52;;;3.42;;
16516;SDS011;8371;52.272;9.746;2023-09-07T11:18:05;3.33;;;3.22;;
16516;SDS011;8371;52.272;9.746;2023-09-07T11:20:32;3.17;;;3.08;;
16516;SDS011;8371;52.272;9.746;2023-09-07T11:22:59;3.42;;;3.33;;
16516;SDS011;8371;52.272;9.746;2023-09-07T11:25:25;3.40;;;3.23;;
16516;SDS011;8371;52.272;9.746;2023-09-07T11:27:51;3.47;;;3.05;;
16516;SDS011;8371;52.272;9.746;2023-09-07T11:30:19;3.00;;;2.90;;
16516;SDS011;8371;52.272;9.746;2023-09-07T11:32:45;3.67;;;3.47;;
16516;SDS011;8371;52.272;9.746;2023-09-07T11:35:11;3.62;;;3.52;;
16516;SDS011;8371;52.272;9.746;2023-09-07T11:37:37;3.10;;;3.00;;
16516;SDS011;8371;52.272;9.746;2023-09-07T11:40:03;3.20;;;3.10;;
16516;SDS011;8371;52.272;9.746;2023-09-07T11:42:32;3.62;;;3.52;;
16516;SDS011;8371;52.272;9.746;2023-09-07T11:44:58;3.47;;;3.17;;
16516;SDS011;8371;52.272;9.746;2023-09-07T11:47:24;3.80;;;3.57;;
16516;SDS011;8371;52.272;9.746;2023-09-07T11:49:50;21.95;;;5.97;;
16516;SDS011;8371;52.272;9.746;2023-09-07T11:52:16;3.55;;;3.45;;
16516;SDS011;8371;52.272;9.746;2023-09-07T11:54:42;3.20;;;3.10;;
16516;SDS011;8371;52.272;9.746;2023-09-07T11:57:10;3.10;;;3.00;;
16516;SDS011;8371;52.272;9.746;2023-09-07T11:59:35;3.72;;;3.62;;
16516;SDS011;8371;52.272;9.746;2023-09-07T12:02:01;3.15;;;3.05;;
16516;SDS011;8371;52.272;9.746;2023-09-07T12:04:27;3.45;;;3.35;;
16516;SDS011;8371;52.272;9.746;2023-09-07T12:06:53;3.30;;;3.20;;
16516;SDS011;8371;52.272;9.746;2023-09-07T12:09:19;3.42;;;3.12;;
16516;SDS011;8371;52.272;9.746;2023-09-07T12:11:44;3.40;;;3.30;;
16516;SDS011;8371;52.272;9.746;2023-09-07T12:14:10;3.17;;;3.08;;
16516;SDS011;8371;52.272;9.746;2023-09-07T12:16:36;2.90;;;2.80;;
16516;SDS011;8371;52.272;9.746;2023-09-07T12:19:01;4.90;;;2.90;;
16516;SDS011;8371;52.272;9.746;2023-09-07T12:21:27;3.30;;;3.20;;
16516;SDS011;8371;52.272;9.746;2023-09-07T12:23:53;2.80;;;2.70;;
16516;SDS011;8371;52.272;9.746;2023-09-07T12:26:18;2.60;;;2.40;;
16516;SDS011;8371;52.272;9.746;2023-09-07T12:28:46;2.90;;;2.80;;
16516;SDS011;8371;52.272;9.746;2023-09-07T12:31:13;3.17;;;2.92;;
16516;SDS011;8371;52.272;9.746;2023-09-07T12:33:40;3.30;;;3.20;;
16516;SDS011;8371;52.272;9.746;2023-09-07T12:36:06;2.98;;;2.80;;
16516;SDS011;8371;52.272;9.746;2023-09-07T12:38:35;3.10;;;3.00;;
16516;SDS011;8371;52.272;9.746;2023-09-07T12:41:01;3.20;;;3.00;;
16516;SDS011;8371;52.272;9.746;2023-09-07T12:43:28;3.47;;;3.27;;
16516;SDS011;8371;52.272;9.746;2023-09-07T12:45:54;2.90;;;2.80;;
16516;SDS011;8371;52.272;9.746;2023-09-07T12:48:20;2.80;;;2.70;;
16516;SDS011;8371;52.272;9.746;2023-09-07T12:50:46;3.15;;;2.80;;
16516;SDS011;8371;52.272;9.746;2023-09-07T12:53:12;3.00;;;2.90;;
16516;SDS011;8371;52.272;9.746;2023-09-07T12:55:38;3.00;;;2.67;;
16516;SDS011;8371;52.272;9.746;2023-09-07T12:58:03;2.62;;;2.58;;
16516;SDS011;8371;52.272;9.746;2023-09-07T13:00:29;2.87;;;2.72;;
16516;SDS011;8371;52.272;9.746;2023-09-07T13:02:55;3.02;;;2.92;;
16516;SDS011;8371;52.272;9.746;2023-09-07T13:05:21;3.37;;;2.75;;
16516;SDS011;8371;52.272;9.746;2023-09-07T13:07:47;3.33;;;3.05;;
16516;SDS011;8371;52.272;9.746;2023-09-07T13:10:13;5.33;;;3.02;;
16516;SDS011;8371;52.272;9.746;2023-09-07T13:12:40;3.17;;;3.02;;
16516;SDS011;8371;52.272;9.746;2023-09-07T13:15:08;3.15;;;3.05;;
16516;SDS011;8371;52.272;9.746;2023-09-07T13:17:34;3.15;;;3.05;;
16516;SDS011;8371;52.272;9.746;2023-09-07T13:20:00;2.83;;;2.72;;
16516;SDS011;8371;52.272;9.746;2023-09-07T13:22:25;2.92;;;2.83;;
16516;SDS011;8371;52.272;9.746;2023-09-07T13:24:52;3.22;;;3.12;;
16516;SDS011;8371;52.272;9.746;2023-09-07T13:27:17;3.98;;;3.67;;
16516;SDS011;8371;52.272;9.746;2023-09-07T13:29:43;3.45;;;3.33;;
16516;SDS011;8371;52.272;9.746;2023-09-07T13:32:09;3.22;;;3.10;;
16516;SDS011;8371;52.272;9.746;2023-09-07T13:34:35;3.00;;;2.90;;
16516;SDS011;8371;52.272;9.746;2023-09-07T13:37:00;6.60;;;3.20;;
16516;SDS011;8371;52.272;9.746;2023-09-07T13:39:27;3.37;;;3.15;;
16516;SDS011;8371;52.272;9.746;2023-09-07T13:41:52;3.37;;;3.27;;
16516;SDS011;8371;52.272;9.746;2023-09-07T13:44:18;3.15;;;3.05;;
16516;SDS011;8371;52.272;9.746;2023-09-07T13:46:44;3.42;;;3.05;;
16516;SDS011;8371;52.272;9.746;2023-09-07T13:49:10;3.15;;;3.05;;
16516;SDS011;8371;52.272;9.746;2023-09-07T13:51:37;3.50;;;3.40;;
16516;SDS011;8371;52.272;9.746;2023-09-07T13:54:05;2.72;;;2.62;;
16516;SDS011;8371;52.272;9.746;2023-09-07T13:56:32;3.35;;;3.05;;
16516;SDS011;8371;52.272;9.746;2023-09-07T13:58:58;3.65;;;3.45;;
16516;SDS011;8371;52.272;9.746;2023-09-07T14:01:24;3.40;;;3.30;;
16516;SDS011;8371;52.272;9.746;2023-09-07T14:03:50;3.10;;;3.00;;
16516;SDS011;8371;52.272;9.746;2023-09-07T14:06:16;3.05;;;2.95;;
16516;SDS011;8371;52.272;9.746;2023-09-07T14:08:43;2.95;;;2.75;;
16516;SDS011;8371;52.272;9.746;2023-09-07T14:11:10;3.72;;;3.20;;
16516;SDS011;8371;52.272;9.746;2023-09-07T14:13:36;3.08;;;2.98;;
16516;SDS011;8371;52.272;9.746;2023-09-07T14:16:02;3.10;;;3.00;;
16516;SDS011;8371;52.272;9.746;2023-09-07T14:18:28;4.65;;;2.80;;
16516;SDS011;8371;52.272;9.746;2023-09-07T14:20:54;2.90;;;2.80;;
16516;SDS011;8371;52.272;9.746;2023-09-07T14:23:21;2.90;;;2.80;;
16516;SDS011;8371;52.272;9.746;2023-09-07T14:25:47;3.30;;;3.10;;
16516;SDS011;8371;52.272;9.746;2023-09-07T14:28:13;3.10;;;3.00;;
16516;SDS011;8371;52.272;9.746;2023-09-07T14:30:39;3.10;;;2.90;;
16516;SDS011;8371;52.272;9.746;2023-09-07T14:33:05;2.83;;;2.72;;
16516;SDS011;8371;52.272;9.746;2023-09-07T14:35:31;2.90;;;2.70;;
16516;SDS011;8371;52.272;9.746;2023-09-07T14:37:56;2.95;;;2.85;;
16516;SDS011;8371;52.272;9.746;2023-09-07T14:40:22;2.70;;;2.60;;
16516;SDS011;8371;52.272;9.746;2023-09-07T14:42:50;3.02;;;2.37;;
16516;SDS011;8371;52.272;9.746;2023-09-07T14:45:16;2.40;;;2.33;;
16516;SDS011;8371;52.272;9.746;2023-09-07T14:47:42;2.95;;;2.85;;
16516;SDS011;8371;52.272;9.746;2023-09-07T14:50:08;2.75;;;2.50;;
16516;SDS011;8371;52.272;9.746;2023-09-07T14:52:34;3.50;;;2.60;;
16516;SDS011;8371;52.272;9.746;2023-09-07T14:55:02;2.98;;;2.77;;
16516;SDS011;8371;52.272;9.746;2023-09-07T14:57:28;2.80;;;2.65;;
16516;SDS011;8371;52.272;9.746;2023-09-07T14:59:53;2.70;;;2.60;;